Time;durP1;ratioP1;P1;durP2;ratioP2;P2;SDS_P1;SDS_P2;PMS_P1;PMS_P2;Temp;Humidity;BMP_temperature;BMP_pressure;BME280_temperature;BME280_humidity;BME280_pressure;Samples;Min_cycle;Max_cycle;Signal;HPM_P1;HPM_P2
2022/05/10 00:01:33;;;;;;;4.13;2.00;;;15.00;99.90;;;;;;5022890;28;20030;-74
2022/05/10 00:04:01;;;;;;;8.32;1.75;;;14.90;99.90;;;;;;5022158;28;20089;-74
2022/05/10 00:06:32;;;;;;;4.88;1.85;;;14.90;99.90;;;;;;5022343;28;20101;-73
2022/05/10 00:08:57;;;;;;;3.78;2.10;;;14.90;99.90;;;;;;5022942;28;20044;-73
2022/05/10 00:11:23;;;;;;;6.25;1.95;;;14.90;99.90;;;;;;5022970;28;20030;-73
2022/05/10 00:13:49;;;;;;;1.88;1.40;;;14.90;99.90;;;;;;5022584;28;20062;-73
2022/05/10 00:16:19;;;;;;;6.97;2.15;;;14.80;99.90;;;;;;5022892;28;20025;-73
2022/05/10 00:18:46;;;;;;;3.38;1.98;;;14.70;99.90;;;;;;5022696;28;20022;-73
2022/05/10 00:21:16;;;;;;;3.38;1.63;;;14.70;99.90;;;;;;5022789;28;20025;-74
2022/05/10 00:23:42;;;;;;;6.20;2.55;;;14.70;99.90;;;;;;5022547;28;20049;-73
2022/05/10 00:26:07;;;;;;;5.40;2.30;;;14.60;99.90;;;;;;5022491;28;20026;-74
2022/05/10 00:28:33;;;;;;;3.00;1.70;;;14.70;99.90;;;;;;5004690;28;20032;-74
2022/05/10 00:30:59;;;;;;;7.95;2.22;;;14.60;99.90;;;;;;5021914;28;20030;-74
2022/05/10 00:33:30;;;;;;;4.38;2.20;;;14.70;99.90;;;;;;5022712;28;20057;-75
2022/05/10 00:35:57;;;;;;;7.43;2.45;;;14.60;99.90;;;;;;5022073;28;20026;-74
2022/05/10 00:38:30;;;;;;;6.25;2.47;;;14.60;99.90;;;;;;5022901;28;20401;-74
2022/05/10 00:40:55;;;;;;;4.30;1.83;;;14.60;99.90;;;;;;5022678;28;20022;-75
2022/05/10 00:43:30;;;;;;;4.95;2.15;;;14.50;99.90;;;;;;5022563;28;20041;-73
2022/05/10 00:46:08;;;;;;;;;;;14.50;99.90;;;;;;5023287;28;20030;-74
2022/05/10 00:48:54;;;;;;;5.22;2.47;;;14.50;99.90;;;;;;5021150;28;20586;-74
2022/05/10 00:51:36;;;;;;;4.60;2.20;;;14.40;99.90;;;;;;5004683;28;20049;-76
2022/05/10 00:54:18;;;;;;;4.35;2.30;;;14.50;99.90;;;;;;5022588;28;20022;-75
2022/05/10 00:56:57;;;;;;;4.65;2.17;;;14.40;99.90;;;;;;5004714;28;20030;-74
2022/05/10 00:59:30;;;;;;;5.75;2.50;;;14.40;99.90;;;;;;5022525;28;20108;-74
2022/05/10 01:02:06;;;;;;;6.55;2.10;;;14.40;99.90;;;;;;5021949;28;20068;-73
2022/05/10 01:04:44;;;;;;;4.47;2.60;;;14.30;99.90;;;;;;5020511;28;20034;-74
2022/05/10 01:07:20;;;;;;;6.85;2.45;;;14.40;99.90;;;;;;5022413;28;20033;-73
2022/05/10 01:09:54;;;;;;;9.45;2.17;;;14.40;99.90;;;;;;5021180;28;20034;-73
2022/05/10 01:12:50;;;;;;;4.25;2.00;;;14.30;99.90;;;;;;5022045;28;20029;-74
2022/05/10 01:15:22;;;;;;;6.65;2.75;;;14.30;99.90;;;;;;5021324;28;20429;-75
2022/05/10 01:17:52;;;;;;;4.18;2.40;;;14.40;99.90;;;;;;5025939;28;20564;-74
2022/05/10 01:20:23;;;;;;;2.83;1.77;;;14.40;99.90;;;;;;5008328;28;20030;-75
2022/05/10 01:23:39;;;;;;;5.38;2.78;;;14.30;99.90;;;;;;5008630;28;20032;-74
2022/05/10 01:26:20;;;;;;;6.22;2.35;;;14.30;99.90;;;;;;5025383;28;20061;-75
2022/05/10 01:28:51;;;;;;;6.20;2.33;;;14.30;99.90;;;;;;5025784;28;20014;-73
2022/05/10 01:31:27;;;;;;;3.72;2.15;;;14.30;99.90;;;;;;5007340;28;20042;-74
2022/05/10 01:34:01;;;;;;;4.47;2.20;;;14.30;99.90;;;;;;4999706;28;20239;-74
2022/05/10 01:36:32;;;;;;;5.68;2.35;;;14.30;99.90;;;;;;5007976;28;20474;-74
2022/05/10 01:39:07;;;;;;;4.78;2.58;;;14.30;99.90;;;;;;5024971;28;20034;-74
2022/05/10 01:41:45;;;;;;;6.55;2.83;;;14.30;99.90;;;;;;5025546;28;20112;-74
2022/05/10 01:44:34;;;;;;;11.07;2.92;;;14.30;99.90;;;;;;5007916;28;20026;-74
2022/05/10 01:47:13;;;;;;;8.35;2.45;;;14.30;99.90;;;;;;5025284;28;20025;-74
2022/05/10 01:50:15;;;;;;;4.35;2.60;;;14.30;99.90;;;;;;5025490;28;20034;-74
2022/05/10 01:52:47;;;;;;;10.55;2.78;;;14.20;99.90;;;;;;5024627;28;20026;-73
2022/05/10 01:55:31;;;;;;;7.53;2.97;;;14.20;99.90;;;;;;5025478;28;20032;-73
2022/05/10 01:58:03;;;;;;;8.10;2.67;;;14.20;99.90;;;;;;5025419;28;20026;-75
2022/05/10 02:00:32;;;;;;;5.43;2.13;;;14.10;99.90;;;;;;5025250;28;20093;-73
2022/05/10 02:03:00;;;;;;;6.63;2.28;;;14.20;99.90;;;;;;5024947;28;20044;-75
2022/05/10 02:05:49;;;;;;;4.22;1.98;;;14.20;99.90;;;;;;5007275;28;20055;-74
2022/05/10 02:08:30;;;;;;;4.85;2.40;;;14.20;99.90;;;;;;5024712;28;20030;-74
2022/05/10 02:11:09;;;;;;;14.20;2.70;;;14.10;99.90;;;;;;5025294;28;20136;-74
2022/05/10 02:13:41;;;;;;;8.50;2.00;;;14.10;99.90;;;;;;5024892;28;20022;-74
2022/05/10 02:16:17;;;;;;;3.67;2.15;;;14.10;99.90;;;;;;5025260;28;20022;-73
2022/05/10 02:18:51;;;;;;;3.22;2.28;;;14.10;99.90;;;;;;5024939;28;20026;-74
2022/05/10 02:21:21;;;;;;;4.72;2.40;;;14.10;99.90;;;;;;5024278;28;20026;-73
2022/05/10 02:24:05;;;;;;;6.43;2.53;;;14.10;99.90;;;;;;5024975;28;20038;-74
2022/05/10 02:26:59;;;;;;;7.45;3.22;;;14.10;99.90;;;;;;5023761;28;20057;-75
2022/05/10 02:29:46;;;;;;;6.27;3.17;;;14.10;99.90;;;;;;5023065;28;20152;-76
2022/05/10 02:35:05;;;;;;;4.72;2.03;;;14.00;99.90;;;;;;5024432;28;20037;-73
2022/05/10 02:37:32;;;;;;;8.15;2.25;;;14.10;99.90;;;;;;5024028;28;20068;-73
2022/05/10 02:39:59;;;;;;;6.95;2.80;;;14.00;99.90;;;;;;5024774;28;20030;-75
2022/05/10 02:42:26;;;;;;;7.93;3.10;;;14.10;99.90;;;;;;5024321;28;20048;-74
2022/05/10 02:44:55;;;;;;;12.35;3.20;;;14.00;99.90;;;;;;5024271;28;20030;-75
2022/05/10 02:47:47;;;;;;;5.75;2.90;;;14.00;99.90;;;;;;5007067;28;20022;-73
2022/05/10 02:50:24;;;;;;;7.03;3.22;;;14.00;99.90;;;;;;5020778;28;20073;-74
2022/05/10 02:52:51;;;;;;;7.82;3.15;;;14.00;99.90;;;;;;5006824;28;20034;-74
2022/05/10 02:55:32;;;;;;;4.05;2.42;;;14.00;99.90;;;;;;5023963;28;20085;-74
2022/05/10 02:58:04;;;;;;;5.97;2.58;;;13.90;99.90;;;;;;5023777;28;20026;-72
2022/05/10 03:00:31;;;;;;;7.18;2.88;;;13.90;99.90;;;;;;5024560;28;20041;-73
2022/05/10 03:03:07;;;;;;;6.30;3.08;;;13.90;99.90;;;;;;5023736;28;20054;-74
2022/05/10 03:05:33;;;;;;;10.95;2.85;;;13.80;99.90;;;;;;5023967;28;20037;-74
2022/05/10 03:07:59;;;;;;;6.10;3.00;;;13.80;99.90;;;;;;5024098;28;20030;-75
2022/05/10 03:10:25;;;;;;;4.20;2.88;;;13.80;99.90;;;;;;5023990;28;20117;-75
2022/05/10 03:12:51;;;;;;;9.70;3.35;;;13.80;99.90;;;;;;5005540;28;20029;-75
2022/05/10 03:15:16;;;;;;;5.32;2.95;;;13.70;99.90;;;;;;5024064;28;20539;-73
2022/05/10 03:17:42;;;;;;;7.57;3.20;;;13.70;99.90;;;;;;5023252;28;20422;-75
2022/05/10 03:20:08;;;;;;;8.50;2.92;;;13.60;99.90;;;;;;5023778;28;20137;-75
2022/05/10 03:22:34;;;;;;;4.22;2.55;;;13.60;99.90;;;;;;5023498;28;20373;-73
2022/05/10 03:24:59;;;;;;;7.30;3.97;;;13.60;99.90;;;;;;5023745;28;20081;-74
2022/05/10 03:27:25;;;;;;;4.97;2.78;;;13.60;99.90;;;;;;5023600;28;20036;-74
2022/05/10 03:29:51;;;;;;;5.68;2.63;;;13.60;99.90;;;;;;5023687;28;20022;-74
2022/05/10 03:32:16;;;;;;;10.13;3.50;;;13.50;99.90;;;;;;5023525;28;20025;-73
2022/05/10 03:34:54;;;;;;;5.70;2.85;;;13.50;99.90;;;;;;5006086;28;20105;-75
2022/05/10 03:37:23;;;;;;;12.82;3.72;;;13.50;99.90;;;;;;5023307;28;20026;-74
2022/05/10 03:39:48;;;;;;;8.43;2.95;;;13.40;99.90;;;;;;5022870;28;20026;-74
2022/05/10 03:42:14;;;;;;;7.82;3.15;;;13.40;99.90;;;;;;5023472;28;20030;-75
2022/05/10 03:44:40;;;;;;;4.35;2.88;;;13.50;99.90;;;;;;5023153;28;20029;-75
2022/05/10 03:47:07;;;;;;;5.07;3.03;;;13.50;99.90;;;;;;5023361;28;20037;-72
2022/05/10 03:49:33;;;;;;;11.07;3.28;;;13.50;99.90;;;;;;5023497;28;20026;-75
2022/05/10 03:51:59;;;;;;;5.80;2.88;;;13.50;99.90;;;;;;5022998;28;20141;-75
2022/05/10 03:54:25;;;;;;;4.63;3.10;;;13.50;99.90;;;;;;5023490;28;20034;-73
2022/05/10 03:56:51;;;;;;;8.45;3.42;;;13.50;99.90;;;;;;5023198;28;20037;-73
2022/05/10 03:59:17;;;;;;;4.05;2.10;;;13.50;99.90;;;;;;5021928;28;20033;-73
2022/05/10 04:01:44;;;;;;;6.07;2.20;;;13.50;99.90;;;;;;5005430;28;20057;-73
2022/05/10 04:04:10;;;;;;;5.43;2.47;;;13.50;99.90;;;;;;5023261;28;20060;-71
2022/05/10 04:06:36;;;;;;;6.15;3.20;;;13.50;99.90;;;;;;5023008;28;20021;-72
2022/05/10 04:09:02;;;;;;;4.90;2.72;;;13.40;99.90;;;;;;5005602;28;20655;-73
2022/05/10 04:11:28;;;;;;;5.82;3.03;;;13.40;99.90;;;;;;5022937;28;20034;-73
2022/05/10 04:13:54;;;;;;;8.85;2.88;;;13.40;99.90;;;;;;5022838;28;20072;-73
2022/05/10 04:16:19;;;;;;;8.68;3.13;;;13.40;99.90;;;;;;5023260;28;20030;-73
2022/05/10 04:18:45;;;;;;;13.77;2.72;;;13.40;99.90;;;;;;5022749;28;20496;-74
2022/05/10 04:21:11;;;;;;;5.50;2.83;;;13.40;99.90;;;;;;5021850;28;20041;-74
2022/05/10 04:23:37;;;;;;;8.82;2.95;;;13.40;99.90;;;;;;5021039;28;20565;-73
2022/05/10 04:26:05;;;;;;;5.05;2.92;;;13.40;99.90;;;;;;5021947;28;20034;-74
2022/05/10 04:28:32;;;;;;;6.65;2.80;;;13.40;99.90;;;;;;5022656;28;20777;-73
2022/05/10 04:30:57;;;;;;;6.72;2.72;;;13.40;99.90;;;;;;5021437;28;20037;-72
2022/05/10 04:33:23;;;;;;;6.40;3.10;;;13.40;99.90;;;;;;5022710;28;20057;-72
2022/05/10 04:35:48;;;;;;;8.75;3.42;;;13.50;99.90;;;;;;5004540;28;20589;-73
2022/05/10 04:38:14;;;;;;;5.00;2.92;;;13.40;99.90;;;;;;5020932;28;20037;-74
2022/05/10 04:43:24;;;;;;;6.80;3.58;;;13.50;99.90;;;;;;5021944;28;20064;-74
2022/05/10 04:45:49;;;;;;;8.07;2.97;;;13.50;99.90;;;;;;5020080;28;20038;-73
2022/05/10 04:48:15;;;;;;;6.95;3.28;;;13.50;99.90;;;;;;5004435;28;20041;-72
2022/05/10 04:50:40;;;;;;;6.28;3.47;;;13.60;99.90;;;;;;5023311;28;20092;-73
2022/05/10 04:53:06;;;;;;;16.63;3.75;;;13.60;99.90;;;;;;5026172;28;20056;-73
2022/05/10 04:55:31;;;;;;;9.73;3.50;;;13.60;99.90;;;;;;5025429;28;20734;-73
2022/05/10 04:57:58;;;;;;;5.13;2.97;;;13.60;99.90;;;;;;5025753;28;20110;-74
2022/05/10 05:00:26;;;;;;;5.65;2.40;;;13.70;99.90;;;;;;5018968;28;20072;-75
2022/05/10 05:02:51;;;;;;;9.57;3.00;;;13.70;99.90;;;;;;5006802;28;20049;-73
2022/05/10 05:05:17;;;;;;;11.77;2.97;;;13.80;99.90;;;;;;5025792;28;20026;-72
2022/05/10 05:07:43;;;;;;;13.93;3.08;;;13.80;99.90;;;;;;5004358;28;20454;-75
2022/05/10 05:10:09;;;;;;;5.13;3.03;;;13.80;99.90;;;;;;5025713;28;20046;-73
2022/05/10 05:12:35;;;;;;;5.18;2.97;;;13.90;99.90;;;;;;5024477;28;20029;-73
2022/05/10 05:15:04;;;;;;;4.78;2.78;;;13.90;99.90;;;;;;5024464;28;20018;-73
2022/05/10 05:17:30;;;;;;;6.03;3.00;;;13.90;99.90;;;;;;5024726;28;20021;-74
2022/05/10 05:19:59;;;;;;;5.18;2.55;;;13.90;99.90;;;;;;5008158;28;20030;-74
2022/05/10 05:22:26;;;;;;;7.68;3.25;;;14.00;99.90;;;;;;5024999;28;20045;-74
2022/05/10 05:24:52;;;;;;;6.75;2.60;;;14.00;99.90;;;;;;5026067;28;20041;-72
2022/05/10 05:27:19;;;;;;;9.50;3.55;;;14.00;99.90;;;;;;5025105;28;20055;-73
2022/05/10 05:29:46;;;;;;;4.80;2.50;;;14.10;99.90;;;;;;5007183;28;20021;-74
2022/05/10 05:32:22;;;;;;;4.90;3.03;;;14.10;99.90;;;;;;5022361;28;20038;-75
2022/05/10 05:34:48;;;;;;;8.15;3.33;;;14.10;99.90;;;;;;5025712;28;20055;-73
2022/05/10 05:39:58;;;;;;;5.97;2.90;;;14.20;99.90;;;;;;5025351;28;20079;-73
2022/05/10 05:42:29;;;;;;;3.58;2.33;;;14.30;99.90;;;;;;5025687;28;20056;-75
2022/05/10 05:45:06;;;;;;;6.80;2.97;;;14.30;99.90;;;;;;5007953;28;20032;-75
2022/05/10 05:47:36;;;;;;;6.82;3.00;;;14.40;99.90;;;;;;5025636;28;20068;-74
2022/05/10 05:50:03;;;;;;;7.45;3.78;;;14.50;99.90;;;;;;5025059;28;20064;-73
2022/05/10 05:52:29;;;;;;;4.97;2.65;;;14.50;99.90;;;;;;5008188;28;20018;-74
2022/05/10 05:54:58;;;;;;;5.50;3.25;;;14.70;99.90;;;;;;5024556;28;20034;-74
2022/05/10 05:57:25;;;;;;;10.05;3.13;;;14.70;99.90;;;;;;5025467;28;20083;-75
2022/05/10 05:59:55;;;;;;;8.25;4.07;;;14.70;99.90;;;;;;5025130;28;20033;-74
2022/05/10 06:02:23;;;;;;;8.52;3.78;;;15.00;99.90;;;;;;5007127;28;20549;-74
2022/05/10 06:04:49;;;;;;;3.55;2.42;;;15.00;99.90;;;;;;5025364;28;21071;-73
2022/05/10 06:07:15;;;;;;;6.82;3.13;;;15.10;99.90;;;;;;5025743;28;20030;-73
2022/05/10 06:09:42;;;;;;;5.38;2.90;;;15.20;99.90;;;;;;5023870;28;20026;-73
2022/05/10 06:12:10;;;;;;;9.18;3.53;;;15.20;99.90;;;;;;5025032;28;20041;-74
2022/05/10 06:14:36;;;;;;;5.78;3.42;;;15.40;99.90;;;;;;5007068;28;20156;-74
2022/05/10 06:17:03;;;;;;;12.40;3.25;;;15.50;99.90;;;;;;5006023;28;20069;-74
2022/05/10 06:19:29;;;;;;;6.85;3.45;;;15.60;99.90;;;;;;5025128;28;20026;-76
2022/05/10 06:21:56;;;;;;;6.68;3.17;;;15.60;99.90;;;;;;5007531;28;20022;-75
2022/05/10 06:24:23;;;;;;;6.97;2.83;;;15.60;99.90;;;;;;5024697;28;20033;-72
2022/05/10 06:26:49;;;;;;;5.88;3.22;;;15.80;99.90;;;;;;5024735;28;20030;-73
2022/05/10 06:29:15;;;;;;;7.43;3.95;;;15.80;99.90;;;;;;5023710;28;20360;-73
2022/05/10 06:31:45;;;;;;;27.02;3.40;;;16.00;99.90;;;;;;5005562;28;20038;-75
2022/05/10 06:34:11;;;;;;;8.25;3.83;;;16.00;99.90;;;;;;5024747;28;20482;-74
2022/05/10 06:36:38;;;;;;;8.77;3.53;;;16.00;99.90;;;;;;5024973;28;20025;-73
2022/05/10 06:39:05;;;;;;;7.20;3.00;;;16.10;99.90;;;;;;5024557;28;20030;-73
2022/05/10 06:41:32;;;;;;;14.32;4.22;;;16.10;99.90;;;;;;5025238;28;20048;-73
2022/05/10 06:43:58;;;;;;;7.07;3.90;;;16.30;99.90;;;;;;5023949;28;20471;-73
2022/05/10 06:46:24;;;;;;;15.25;4.03;;;16.30;99.90;;;;;;5023667;28;20037;-73
2022/05/10 06:48:50;;;;;;;7.68;3.92;;;16.40;99.90;;;;;;5007192;28;20018;-73
2022/05/10 06:51:18;;;;;;;12.38;4.80;;;16.50;99.90;;;;;;5021707;28;20038;-74
2022/05/10 06:53:44;;;;;;;6.22;2.83;;;16.50;99.90;;;;;;5021555;28;20057;-70
2022/05/10 06:56:10;;;;;;;9.98;4.20;;;16.60;99.90;;;;;;5022837;28;20035;-73
2022/05/10 06:58:36;;;;;;;13.15;4.55;;;16.70;99.90;;;;;;5023612;28;20463;-73
2022/05/10 07:01:02;;;;;;;12.30;4.93;;;16.80;99.90;;;;;;5022725;28;20033;-72
2022/05/10 07:03:32;;;;;;;11.18;3.67;;;16.80;99.90;;;;;;5022380;28;20078;-74
2022/05/10 07:06:02;;;;;;;10.45;4.57;;;16.80;99.90;;;;;;5006338;28;20113;-74
2022/05/10 07:08:31;;;;;;;10.40;4.82;;;16.90;99.90;;;;;;5021113;28;20018;-73
2022/05/10 07:10:58;;;;;;;15.98;5.45;;;17.00;99.90;;;;;;5023132;28;20033;-75
2022/05/10 07:13:26;;;;;;;10.75;4.85;;;17.00;99.90;;;;;;5023403;28;20056;-72
2022/05/10 07:15:53;;;;;;;12.10;5.45;;;17.10;99.90;;;;;;5006513;28;20374;-72
2022/05/10 07:18:19;;;;;;;7.55;4.03;;;17.10;99.90;;;;;;5024101;28;20066;-74
2022/05/10 07:20:46;;;;;;;10.85;5.10;;;17.20;99.90;;;;;;5005678;28;20030;-74
2022/05/10 07:23:13;;;;;;;12.35;4.63;;;17.20;99.90;;;;;;5023902;28;20064;-70
2022/05/10 07:25:39;;;;;;;11.73;4.63;;;17.20;99.90;;;;;;5023177;28;20076;-73
2022/05/10 07:28:08;;;;;;;13.43;5.55;;;17.30;99.90;;;;;;5017884;28;20045;-72
2022/05/10 07:30:35;;;;;;;11.40;4.75;;;17.30;99.90;;;;;;5005303;28;20049;-74
2022/05/10 07:33:01;;;;;;;7.50;4.03;;;17.40;99.90;;;;;;5004070;28;20048;-73
2022/05/10 07:38:30;;;;;;;9.45;4.68;;;17.50;99.90;;;;;;5018082;28;20056;-74
2022/05/10 07:41:00;;;;;;;9.07;4.60;;;17.60;99.90;;;;;;5015962;28;20041;-75
2022/05/10 07:43:27;;;;;;;10.88;4.82;;;17.60;99.90;;;;;;5002944;28;20025;-74
2022/05/10 07:45:54;;;;;;;14.93;4.88;;;17.70;99.90;;;;;;5004252;28;20072;-74
2022/05/10 07:48:20;;;;;;;11.68;4.97;;;17.80;99.90;;;;;;5023300;28;20124;-74
2022/05/10 07:50:45;;;;;;;11.75;4.80;;;17.80;99.90;;;;;;5022493;28;20111;-73
2022/05/10 07:53:12;;;;;;;11.00;5.00;;;17.90;99.90;;;;;;5005845;28;20021;-75
2022/05/10 07:55:44;;;;;;;17.40;5.07;;;18.00;99.90;;;;;;5020345;28;20037;-75
2022/05/10 07:58:11;;;;;;;13.38;5.15;;;18.00;99.90;;;;;;5021405;28;20069;-73
2022/05/10 08:00:39;;;;;;;10.57;4.88;;;18.20;99.90;;;;;;5016278;28;20030;-74
2022/05/10 08:03:16;;;;;;;16.27;5.45;;;18.20;99.90;;;;;;5022003;28;20046;-75
2022/05/10 08:05:42;;;;;;;9.15;5.00;;;18.30;99.90;;;;;;5020947;28;20046;-78
2022/05/10 08:08:09;;;;;;;8.55;4.78;;;18.40;99.90;;;;;;5022755;28;20022;-73
2022/05/10 08:10:35;;;;;;;18.27;5.80;;;18.40;99.90;;;;;;5021641;28;20034;-74
2022/05/10 08:13:02;;;;;;;10.57;5.40;;;18.50;99.90;;;;;;5022718;28;20081;-73
2022/05/10 08:15:27;;;;;;;16.55;5.28;;;18.60;99.90;;;;;;5020655;28;20026;-74
2022/05/10 08:17:54;;;;;;;21.67;5.35;;;18.80;99.90;;;;;;5022080;28;20025;-74
2022/05/10 08:20:19;;;;;;;10.90;5.15;;;18.90;99.90;;;;;;5003724;28;20036;-73
2022/05/10 08:22:46;;;;;;;11.70;5.97;;;19.00;99.90;;;;;;5020456;28;20034;-74
2022/05/10 08:25:13;;;;;;;14.85;5.75;;;19.10;99.90;;;;;;5021179;28;20058;-74
2022/05/10 08:27:40;;;;;;;11.98;5.70;;;19.30;99.90;;;;;;5003303;28;20118;-74
2022/05/10 08:30:06;;;;;;;14.65;6.18;;;19.40;99.90;;;;;;5022739;28;20026;-71
2022/05/10 08:32:36;;;;;;;16.73;5.10;;;19.50;99.90;;;;;;5022483;28;20022;-72
2022/05/10 08:35:03;;;;;;;9.02;4.95;;;19.60;99.90;;;;;;5021930;28;20029;-73
2022/05/10 08:37:28;;;;;;;9.35;5.13;;;19.70;99.90;;;;;;5021974;28;20118;-73
2022/05/10 08:39:54;;;;;;;15.65;5.65;;;19.80;99.90;;;;;;5003054;28;20057;-73
2022/05/10 08:42:28;;;;;;;11.55;5.18;;;20.00;99.90;;;;;;5021434;28;20093;-75
2022/05/10 08:45:04;;;;;;;18.67;6.13;;;20.20;99.90;;;;;;5004395;28;20049;-73
2022/05/10 08:47:30;;;;;;;9.27;4.65;;;20.30;99.90;;;;;;5022323;28;20505;-68
2022/05/10 08:50:03;;;;;;;9.25;5.00;;;20.40;99.90;;;;;;5022338;28;20470;-73
2022/05/10 08:52:41;;;;;;;10.57;4.55;;;20.60;99.90;;;;;;5020893;28;20020;-73
2022/05/10 08:55:09;;;;;;;18.08;5.45;;;20.70;99.90;;;;;;5020575;28;20065;-73
2022/05/10 08:57:43;;;;;;;19.95;4.38;;;20.80;99.90;;;;;;5021572;28;20022;-76
2022/05/10 09:00:31;;;;;;;9.88;4.53;;;21.00;99.90;;;;;;5003854;28;20042;-69
2022/05/10 09:02:59;;;;;;;11.57;4.38;;;21.10;99.90;;;;;;5004475;28;20053;-74
2022/05/10 09:05:28;;;;;;;7.50;4.00;;;21.30;99.90;;;;;;5022124;28;20026;-73
2022/05/10 09:08:27;;;;;;;11.23;4.30;;;21.40;99.90;;;;;;5022480;28;20022;-74
2022/05/10 09:11:04;;;;;;;10.10;4.22;;;21.50;99.90;;;;;;5004432;28;20072;-75
2022/05/10 09:13:30;;;;;;;10.80;4.07;;;21.60;99.90;;;;;;5021550;28;20029;-73
2022/05/10 09:16:00;;;;;;;8.20;3.40;;;21.70;99.90;;;;;;5021934;28;20056;-74
2022/05/10 09:18:28;;;;;;;8.32;3.45;;;21.80;99.90;;;;;;5021806;28;20386;-72
2022/05/10 09:21:08;;;;;;;9.52;3.17;;;21.80;99.90;;;;;;5022025;28;20022;-74
2022/05/10 09:23:58;;;;;;;6.70;3.75;;;21.90;99.90;;;;;;5021722;28;20070;-71
2022/05/10 09:26:30;;;;;;;10.57;2.92;;;22.10;99.90;;;;;;5020974;28;20034;-73
2022/05/10 09:29:05;;;;;;;6.15;2.67;;;22.20;99.90;;;;;;5004738;28;20030;-71
2022/05/10 09:37:31;;;;;;;4.18;2.83;;;22.80;99.90;;;;;;5022428;28;20072;-73
2022/05/10 09:39:57;;;;;;;10.40;2.72;;;22.90;99.90;;;;;;5023621;28;20034;-74
2022/05/10 09:42:25;;;;;;;3.70;2.10;;;23.00;99.90;;;;;;5004329;28;20057;-72
2022/05/10 09:45:11;;;;;;;10.10;2.78;;;23.20;99.90;;;;;;5025477;28;20034;-72
2022/05/10 09:47:53;;;;;;;8.50;2.47;;;23.40;99.90;;;;;;5005873;28;20042;-77
2022/05/10 09:50:21;;;;;;;7.68;2.75;;;23.40;99.90;;;;;;5024779;28;20090;-73
2022/05/10 09:52:48;;;;;;;4.50;2.10;;;23.50;99.90;;;;;;5007089;28;20034;-72
2022/05/10 09:55:33;;;;;;;6.15;1.73;;;23.50;99.90;;;;;;5023553;28;20029;-72
2022/05/10 09:58:16;;;;;;;23.13;2.30;;;23.50;99.90;;;;;;5022108;28;20065;-70
2022/05/10 10:00:45;;;;;;;2.45;1.73;;;23.40;99.90;;;;;;5000903;28;20026;-72
2022/05/10 10:03:22;;;;;;;5.50;2.35;;;23.30;99.90;;;;;;5024731;28;20056;-71
2022/05/10 10:05:48;;;;;;;2.30;1.80;;;23.30;99.90;;;;;;5025039;28;20037;-73
2022/05/10 10:08:13;;;;;;;5.47;2.28;;;23.40;99.90;;;;;;5003052;28;20030;-70
2022/05/10 10:10:39;;;;;;;8.35;2.15;;;23.60;99.90;;;;;;5023964;28;20088;-73
2022/05/10 10:13:37;;;;;;;4.32;1.90;;;23.90;99.90;;;;;;5025272;28;20029;-73
2022/05/10 10:16:14;;;;;;;13.10;2.75;;;24.10;99.90;;;;;;5006061;28;20036;-71
2022/05/10 10:18:45;;;;;;;8.05;2.35;;;24.30;99.90;;;;;;5025083;28;20026;-71
2022/05/10 10:21:20;;;;;;;3.05;2.15;;;24.30;99.90;;;;;;5024616;28;20018;-74
2022/05/10 10:23:54;;;;;;;4.35;2.45;;;24.30;99.90;;;;;;5025041;28;20037;-68
2022/05/10 10:26:35;;;;;;;5.32;1.65;;;24.20;99.90;;;;;;4999844;28;20025;-73
2022/05/10 10:29:19;;;;;;;5.97;1.98;;;24.20;99.90;;;;;;5024624;28;20055;-69
2022/05/10 10:31:53;;;;;;;6.20;2.25;;;24.30;99.90;;;;;;5024712;28;20033;-72
2022/05/10 10:34:49;;;;;;;4.13;2.00;;;24.40;99.90;;;;;;5024886;28;20061;-72
2022/05/10 10:37:32;;;;;;;2.30;1.48;;;24.50;99.90;;;;;;5024834;28;20041;-71
2022/05/10 10:40:31;;;;;;;3.20;1.70;;;24.70;99.90;;;;;;5006970;28;20066;-74
2022/05/10 10:43:21;;;;;;;2.95;1.70;;;24.80;99.90;;;;;;5023548;28;20034;-74
2022/05/10 10:45:49;;;;;;;2.13;1.40;;;24.80;99.90;;;;;;5022951;28;20030;-68
2022/05/10 10:48:25;;;;;;;4.13;1.30;;;24.70;99.90;;;;;;5023819;28;20085;-71
2022/05/10 10:50:52;;;;;;;3.95;1.63;;;24.70;99.90;;;;;;5024017;28;20045;-72
2022/05/10 10:53:20;;;;;;;5.13;2.30;;;24.70;99.90;;;;;;5024627;28;20022;-70
2022/05/10 10:55:51;;;;;;;5.55;2.20;;;24.70;99.90;;;;;;5024338;28;20014;-68
2022/05/10 10:58:48;;;;;;;3.03;1.52;;;24.80;99.90;;;;;;5023921;28;20022;-75
2022/05/10 11:01:34;;;;;;;6.10;1.75;;;24.90;99.90;;;;;;5006302;28;20029;-72
2022/05/10 11:04:12;;;;;;;2.63;1.55;;;25.00;99.90;;;;;;5003252;28;20045;-72
2022/05/10 11:06:53;;;;;;;3.53;1.80;;;24.90;99.90;;;;;;5004724;28;20188;-77
2022/05/10 11:09:32;;;;;;;6.50;2.42;;;24.90;99.90;;;;;;5004755;28;20029;-71
2022/05/10 11:12:25;;;;;;;9.68;2.33;;;24.90;99.90;;;;;;5004265;28;20052;-70
2022/05/10 11:14:54;;;;;;;4.28;2.25;;;24.90;99.90;;;;;;5004510;28;20121;-73
2022/05/10 11:17:32;;;;;;;4.00;2.08;;;24.90;99.90;;;;;;5004142;28;20026;-71
2022/05/10 11:20:37;;;;;;;3.40;1.77;;;24.90;99.90;;;;;;5003501;28;20121;-72
2022/05/10 11:23:04;;;;;;;;;;;24.90;99.90;;;;;;4987314;28;20037;-71
2022/05/10 11:26:02;;;;;;;6.88;1.63;;;24.90;99.90;;;;;;5003837;28;20354;-74
2022/05/10 11:29:11;;;;;;;6.40;2.17;;;25.00;99.90;;;;;;5003175;28;20026;-73
2022/05/10 11:31:43;;;;;;;9.50;2.70;;;25.10;99.90;;;;;;4985004;28;20045;-72
2022/05/10 11:34:40;;;;;;;7.45;2.60;;;25.00;99.90;;;;;;5003208;28;20030;-74
2022/05/10 11:37:13;;;;;;;3.95;2.20;;;24.90;99.90;;;;;;5003834;28;20022;-75
2022/05/10 11:40:09;;;;;;;4.70;2.17;;;24.70;99.90;;;;;;5001934;28;20049;-73
2022/05/10 11:43:04;;;;;;;9.18;2.50;;;24.70;99.90;;;;;;5003322;28;20031;-69
2022/05/10 11:46:23;;;;;;;3.33;1.90;;;24.50;99.90;;;;;;4984423;28;20089;-71
2022/05/10 11:49:07;;;;;;;6.00;2.17;;;24.40;99.90;;;;;;5003540;28;20026;-70
2022/05/10 11:52:07;;;;;;;3.15;1.88;;;24.30;99.90;;;;;;5003679;28;20046;-70
2022/05/10 11:54:53;;;;;;;6.82;2.05;;;24.30;99.90;;;;;;5003783;28;20137;-72
2022/05/10 11:57:21;;;;;;;9.68;3.15;;;24.50;99.90;;;;;;5003782;28;20026;-74
2022/05/10 11:59:48;;;;;;;5.75;2.55;;;24.70;99.90;;;;;;5003246;28;20023;-73
2022/05/10 12:02:29;;;;;;;9.73;2.83;;;25.00;99.90;;;;;;5010229;28;20054;-72
2022/05/10 12:05:12;;;;;;;4.50;2.60;;;25.40;99.90;;;;;;5022643;28;20061;-72
2022/05/10 12:07:45;;;;;;;4.03;2.75;;;25.80;99.90;;;;;;5021480;28;20049;-71
2022/05/10 12:10:22;;;;;;;5.10;2.63;;;26.00;99.90;;;;;;5022821;28;20033;-69
2022/05/10 12:13:00;;;;;;;6.20;2.85;;;26.00;99.90;;;;;;5022652;28;20096;-69
2022/05/10 12:21:53;;;;;;;4.63;2.88;;;25.00;99.90;;;;;;5022790;28;20045;-70
2022/05/10 12:24:25;;;;;;;8.13;2.90;;;24.70;99.90;;;;;;5011232;28;20042;-73
2022/05/10 12:26:52;;;;;;;6.35;3.03;;;24.60;99.90;;;;;;5022682;28;20572;-72
2022/05/10 12:29:38;;;;;;;9.43;3.00;;;24.50;99.90;;;;;;5023057;28;20033;-71
2022/05/10 12:32:36;;;;;;;4.78;2.90;;;24.40;99.90;;;;;;5004735;28;20061;-71
2022/05/10 12:35:30;;;;;;;13.02;3.80;;;24.30;99.90;;;;;;5022688;28;20065;-74
2022/05/10 12:38:00;;;;;;;6.13;3.80;;;24.20;99.90;;;;;;5022607;28;20463;-74
2022/05/10 12:40:35;;;;;;;6.32;3.17;;;24.20;99.90;;;;;;5022026;28;20306;-73
2022/05/10 12:43:14;;;;;;;7.55;3.97;;;24.20;99.90;;;;;;5022288;28;20034;-70
2022/05/10 12:46:02;;;;;;;8.82;3.28;;;24.10;99.90;;;;;;5004913;28;20034;-73
2022/05/10 12:48:57;;;;;;;16.33;3.80;;;24.00;99.90;;;;;;5022115;28;20060;-73
2022/05/10 12:52:01;;;;;;;6.13;3.55;;;24.00;99.90;;;;;;5004511;28;20074;-73
2022/05/10 12:54:37;;;;;;;7.28;4.15;;;23.90;99.90;;;;;;5022672;28;20026;-71
2022/05/10 12:57:18;;;;;;;5.75;3.60;;;23.70;99.90;;;;;;5022364;28;20018;-71
2022/05/10 13:00:13;;;;;;;7.70;3.70;;;23.70;99.90;;;;;;5022506;28;20034;-75
2022/05/10 13:02:43;;;;;;;6.60;3.38;;;23.60;99.90;;;;;;5021920;28;20053;-72
2022/05/10 13:05:19;;;;;;;6.20;3.20;;;23.50;99.90;;;;;;5021528;28;20018;-74
2022/05/10 13:08:22;;;;;;;7.20;3.17;;;23.50;99.90;;;;;;5021324;28;20536;-75
2022/05/10 13:10:49;;;;;;;6.15;3.50;;;23.50;99.90;;;;;;5003581;28;20418;-73
2022/05/10 13:13:19;;;;;;;12.50;3.45;;;23.50;99.90;;;;;;5026771;28;20018;-73
2022/05/10 13:15:47;;;;;;;4.57;2.85;;;23.50;99.90;;;;;;5008518;28;20036;-72
2022/05/10 13:18:20;;;;;;;11.32;3.28;;;23.50;99.90;;;;;;5026254;28;20076;-75
2022/05/10 13:20:48;;;;;;;5.75;2.45;;;23.60;99.90;;;;;;5008708;28;20022;-74
2022/05/10 13:23:15;;;;;;;3.95;2.85;;;23.60;99.90;;;;;;5025611;28;20056;-74
2022/05/10 13:25:42;;;;;;;10.27;2.88;;;23.70;99.90;;;;;;5026417;28;20022;-73
2022/05/10 13:28:26;;;;;;;9.80;3.08;;;23.80;99.90;;;;;;5008475;28;20025;-73
2022/05/10 13:30:54;;;;;;;3.28;2.58;;;23.90;99.90;;;;;;5007005;28;20038;-72
2022/05/10 13:33:30;;;;;;;8.02;3.20;;;23.90;99.90;;;;;;5025991;28;20032;-73
2022/05/10 13:36:06;;;;;;;9.10;3.25;;;23.90;99.90;;;;;;5026175;28;20076;-72
2022/05/10 13:38:36;;;;;;;3.42;2.25;;;23.90;99.90;;;;;;5006880;28;20034;-72